createdAt,value
2022-08-05T00:00:50.259Z,5.00
2022-08-05T00:02:53.034Z,4.75
2022-08-05T00:04:56.174Z,4.00
2022-08-05T00:06:58.661Z,6.00
2022-08-05T00:09:01.975Z,4.00
2022-08-05T00:11:20.494Z,5.00
2022-08-05T00:13:38.223Z,4.00
2022-08-05T00:15:56.451Z,5.40
2022-08-05T00:18:02.562Z,4.00
2022-08-05T00:20:05.790Z,4.20
2022-08-05T00:22:11.140Z,5.00
2022-08-05T00:24:18.921Z,5.80
2022-08-05T00:26:22.570Z,3.75
2022-08-05T00:28:29.638Z,5.00
2022-08-05T00:30:33.240Z,4.20
2022-08-05T00:32:36.124Z,5.75
2022-08-05T00:35:04.655Z,4.00
2022-08-05T00:37:11.460Z,3.40
2022-08-05T00:39:16.621Z,5.00
2022-08-05T00:41:51.975Z,4.00
2022-08-05T00:43:55.716Z,5.80
2022-08-05T00:45:58.303Z,4.00
2022-08-05T00:48:05.591Z,3.75
2022-08-05T00:50:09.600Z,4.80
2022-08-05T00:52:12.091Z,4.00
2022-08-05T00:54:14.686Z,5.00
2022-08-05T00:56:22.670Z,5.20
2022-08-05T00:58:27.480Z,5.60
2022-08-05T01:00:31.511Z,6.00
2022-08-05T01:02:34.021Z,6.00
2022-08-05T01:04:36.536Z,6.25
2022-08-05T01:06:47.817Z,5.00
2022-08-05T01:08:53.040Z,5.00
2022-08-05T01:11:09.733Z,6.00
2022-08-05T01:14:01.399Z,6.20
2022-08-05T01:16:09.954Z,4.00
2022-08-05T01:18:25.241Z,4.25
2022-08-05T01:20:44.824Z,6.80
2022-08-05T01:22:48.040Z,5.60
2022-08-05T01:25:22.737Z,3.00
2022-08-05T01:27:55.130Z,4.40
2022-08-05T01:30:03.829Z,5.00
2022-08-05T01:32:12.433Z,4.50
2022-08-05T01:34:27.139Z,4.00
2022-08-05T01:36:42.183Z,4.60
2022-08-05T01:38:50.896Z,5.50
2022-08-05T01:40:55.586Z,5.00
2022-08-05T01:43:01.186Z,6.00
2022-08-05T01:45:08.728Z,5.60
2022-08-05T01:47:14.565Z,5.00
2022-08-05T01:49:24.230Z,5.40
2022-08-05T01:51:29.337Z,5.75
2022-08-05T01:53:55.235Z,4.00
2022-08-05T01:56:04.517Z,5.40
2022-08-05T01:58:29.619Z,6.60
2022-08-05T02:00:36.921Z,6.00
2022-08-05T02:02:46.363Z,7.00
2022-08-05T02:04:57.937Z,6.00
2022-08-05T02:07:00.729Z,5.20
2022-08-05T02:09:07.369Z,4.00
2022-08-05T02:11:12.827Z,7.00
2022-08-05T02:13:36.470Z,7.25
2022-08-05T02:15:59.065Z,6.00
2022-08-05T02:18:30.758Z,4.00
2022-08-05T02:20:59.116Z,5.60
2022-08-05T02:23:05.779Z,6.50
2022-08-05T02:25:22.139Z,5.00
2022-08-05T02:27:29.651Z,4.75
2022-08-05T02:29:58.459Z,4.00
2022-08-05T02:31:58.847Z,6.00
2022-08-05T02:34:11.824Z,6.20
2022-08-05T02:36:19.199Z,7.00
2022-08-05T02:38:22.734Z,5.00
2022-08-05T02:40:30.927Z,5.75
2022-08-05T02:42:36.310Z,5.60
2022-08-05T02:44:41.049Z,6.00
2022-08-05T02:46:58.741Z,6.00
2022-08-05T02:49:05.918Z,5.60
2022-08-05T02:51:15.649Z,5.75
2022-08-05T02:53:20.799Z,5.40
2022-08-05T02:55:54.281Z,6.20
2022-08-05T02:58:20.508Z,7.00
2022-08-05T03:00:13.615Z,7.00
2022-08-05T03:02:19.870Z,4.25
2022-08-05T03:04:23.206Z,6.20
2022-08-05T03:06:54.000Z,7.00
2022-08-05T03:08:54.943Z,5.80
2022-08-05T03:11:01.323Z,4.00
2022-08-05T03:13:21.452Z,5.00
2022-08-05T03:15:30.185Z,5.50
2022-08-05T03:17:41.504Z,6.00
2022-08-05T03:19:45.537Z,7.75
2022-08-05T03:21:49.283Z,5.80
2022-08-05T03:23:53.149Z,5.75
2022-08-05T03:26:04.473Z,5.00
2022-08-05T03:28:19.886Z,4.80
2022-08-05T03:30:30.129Z,6.50
2022-08-05T03:32:38.303Z,5.60
2022-08-05T03:34:40.885Z,6.00
2022-08-05T03:36:43.797Z,4.75
2022-08-05T03:38:53.435Z,5.00
2022-08-05T03:40:57.783Z,4.25
2022-08-05T03:43:01.307Z,5.80
2022-08-05T03:45:22.176Z,5.00
2022-08-05T03:47:26.005Z,5.00
2022-08-05T03:49:51.303Z,7.00
2022-08-05T03:52:38.381Z,5.50
2022-08-05T03:55:51.582Z,4.00
2022-08-05T03:57:00.249Z,4.80
2022-08-05T03:59:07.589Z,5.75
2022-08-05T04:01:13.462Z,7.80
2022-08-05T04:03:28.422Z,5.40
2022-08-05T04:05:34.663Z,6.00
2022-08-05T04:07:57.287Z,6.00
2022-08-05T04:10:10.195Z,4.75
2022-08-05T04:12:23.841Z,5.25
2022-08-05T04:14:29.810Z,6.00
2022-08-05T04:16:35.657Z,5.00
2022-08-05T04:18:39.100Z,3.00
2022-08-05T04:20:42.414Z,3.80
2022-08-05T04:22:51.169Z,5.60
2022-08-05T04:24:53.710Z,4.50
2022-08-05T04:26:58.258Z,4.00
2022-08-05T04:29:07.377Z,4.50
2022-08-05T04:31:10.450Z,6.75
2022-08-05T04:33:14.031Z,7.75
2022-08-05T04:35:19.341Z,7.00
2022-08-05T04:38:00.549Z,5.00
2022-08-05T04:39:45.301Z,5.00
2022-08-05T04:41:55.613Z,5.00
2022-08-05T04:43:58.497Z,5.50
2022-08-05T04:46:05.104Z,6.00
2022-08-05T04:48:18.724Z,6.80
2022-08-05T04:50:37.684Z,6.00
2022-08-05T04:53:18.987Z,6.40
2022-08-05T04:56:11.821Z,6.00
2022-08-05T04:57:47.967Z,6.00
2022-08-05T04:59:54.217Z,7.00
2022-08-05T05:02:07.155Z,6.20
2022-08-05T05:04:21.243Z,6.00
2022-08-05T05:06:40.326Z,8.00
2022-08-05T05:08:50.115Z,4.75
2022-08-05T05:10:56.250Z,6.60
2022-08-05T05:12:59.158Z,6.00
2022-08-05T05:15:05.926Z,5.80
2022-08-05T05:17:13.570Z,4.40
2022-08-05T05:19:19.202Z,6.60
2022-08-05T05:21:27.098Z,8.00
2022-08-05T05:24:02.550Z,7.50
2022-08-05T05:25:52.418Z,4.50
2022-08-05T05:27:56.099Z,9.00
2022-08-05T05:30:04.008Z,7.00
2022-08-05T05:32:07.819Z,5.40
2022-08-05T05:34:15.488Z,6.00
2022-08-05T05:36:18.652Z,7.00
2022-08-05T05:38:27.573Z,5.60
2022-08-05T05:40:32.041Z,6.00
2022-08-05T05:42:34.622Z,5.40
2022-08-05T05:44:43.160Z,6.80
2022-08-05T05:46:48.555Z,7.75
2022-08-05T05:48:53.713Z,6.00
2022-08-05T05:50:56.185Z,7.00
2022-08-05T05:52:58.718Z,5.60
2022-08-05T05:55:13.289Z,6.00
2022-08-05T05:57:19.022Z,4.00
2022-08-05T05:59:21.893Z,4.80
2022-08-05T06:01:25.152Z,4.00
2022-08-05T06:04:00.833Z,5.00
2022-08-05T06:06:02.614Z,5.20
2022-08-05T06:08:06.402Z,6.80
2022-08-05T06:10:11.968Z,7.00
2022-08-05T06:12:15.164Z,5.60
2022-08-05T06:14:18.193Z,4.00
2022-08-05T06:16:31.068Z,4.00
2022-08-05T06:18:39.373Z,6.00
2022-08-05T06:20:47.727Z,6.60
2022-08-05T06:23:17.160Z,6.50
2022-08-05T06:25:59.762Z,4.50
2022-08-05T06:28:10.998Z,5.00
2022-08-05T06:30:17.846Z,5.00
2022-08-05T06:32:25.810Z,4.60
2022-08-05T06:34:29.204Z,5.25
2022-08-05T06:36:56.788Z,5.00
2022-08-05T06:39:03.753Z,6.00
2022-08-05T06:41:08.129Z,4.75
2022-08-05T06:43:57.392Z,5.40
2022-08-05T06:46:03.253Z,4.00
2022-08-05T06:48:37.106Z,6.00
2022-08-05T06:50:37.511Z,7.00
2022-08-05T06:52:40.387Z,5.00
2022-08-05T06:54:46.756Z,5.00
2022-08-05T06:57:56.747Z,7.25
2022-08-05T06:59:23.179Z,4.50
2022-08-05T07:01:32.695Z,3.40
2022-08-05T07:03:42.692Z,5.00
2022-08-05T07:05:48.816Z,6.00
2022-08-05T07:08:00.147Z,5.00
2022-08-05T07:10:09.560Z,5.00
2022-08-05T07:12:49.076Z,5.75
2022-08-05T07:15:12.109Z,5.00
2022-08-05T07:17:59.045Z,5.00
2022-08-05T07:20:33.348Z,5.60
2022-08-05T07:22:47.805Z,7.00
2022-08-05T07:24:53.691Z,6.00
2022-08-05T07:27:02.881Z,5.00
2022-08-05T07:30:27.962Z,4.75
2022-08-05T07:31:55.032Z,5.80
2022-08-05T07:33:59.931Z,6.50
2022-08-05T07:36:21.311Z,6.40
2022-08-05T07:38:33.561Z,5.40
2022-08-05T07:40:38.443Z,5.20
2022-08-05T07:42:47.293Z,4.20
2022-08-05T07:44:50.661Z,4.00
2022-08-05T07:46:55.641Z,4.00
2022-08-05T07:49:08.263Z,5.00
2022-08-05T07:51:36.625Z,6.00
2022-08-05T07:53:37.007Z,5.25
2022-08-05T07:56:06.385Z,4.00
2022-08-05T07:58:59.281Z,4.00
2022-08-05T08:00:45.424Z,4.00
2022-08-05T08:03:14.247Z,4.00
2022-08-05T08:05:17.633Z,5.00
2022-08-05T08:07:22.747Z,4.00
2022-08-05T08:09:25.589Z,5.40
2022-08-05T08:11:47.516Z,4.40
2022-08-05T08:14:01.158Z,5.00
2022-08-05T08:16:34.570Z,4.00
2022-08-05T08:18:27.637Z,5.75
2022-08-05T08:20:44.658Z,3.40
2022-08-05T08:22:55.841Z,5.00
2022-08-05T08:25:03.355Z,5.00
2022-08-05T08:27:07.374Z,4.80
2022-08-05T08:29:29.553Z,4.00
2022-08-05T08:31:33.012Z,5.00
2022-08-05T08:33:37.776Z,5.00
2022-08-05T08:35:52.406Z,5.00
2022-08-05T08:37:57.062Z,6.00
2022-08-05T08:39:59.684Z,5.00
2022-08-05T08:42:05.461Z,5.40
2022-08-05T08:45:20.487Z,5.00
2022-08-05T08:46:45.229Z,3.75
2022-08-05T08:49:07.865Z,4.00
2022-08-05T08:51:22.793Z,4.00
2022-08-05T08:53:45.278Z,4.25
2022-08-05T08:56:02.976Z,4.40
2022-08-05T08:58:08.865Z,3.00
2022-08-05T09:00:11.777Z,4.20
2022-08-05T09:02:20.357Z,4.00
2022-08-05T09:04:23.259Z,5.50
2022-08-05T09:06:45.274Z,4.00
2022-08-05T09:08:52.457Z,4.25
2022-08-05T09:10:55.254Z,3.40
2022-08-05T09:13:04.846Z,4.00
2022-08-05T09:15:08.355Z,3.00
2022-08-05T09:17:42.481Z,3.00
2022-08-05T09:20:01.672Z,3.40
2022-08-05T09:22:18.377Z,3.60
2022-08-05T09:24:24.179Z,4.00
2022-08-05T09:26:30.200Z,4.20
2022-08-05T09:28:37.621Z,4.80
2022-08-05T09:31:22.776Z,4.25
2022-08-05T09:33:34.886Z,5.20
2022-08-05T09:35:37.642Z,4.00
2022-08-05T09:38:16.961Z,4.20
2022-08-05T09:40:38.347Z,5.40
2022-08-05T09:42:41.262Z,4.80
2022-08-05T09:44:50.615Z,4.00
2022-08-05T09:47:15.403Z,4.25
2022-08-05T09:49:40.265Z,5.00
2022-08-05T09:51:49.964Z,4.00
2022-08-05T09:54:00.338Z,5.80
2022-08-05T09:56:11.387Z,5.00
2022-08-05T09:58:15.858Z,4.00
2022-08-05T10:00:24.672Z,4.00
2022-08-05T10:02:58.326Z,5.00
2022-08-05T10:05:15.387Z,5.00
2022-08-05T10:07:20.064Z,5.60
2022-08-05T10:09:44.955Z,4.00
2022-08-05T10:11:48.577Z,5.80
2022-08-05T10:13:54.748Z,7.00
2022-08-05T10:16:06.753Z,6.00
2022-08-05T10:18:12.612Z,4.00
2022-08-05T10:20:18.301Z,5.25
2022-08-05T10:22:30.308Z,6.00
2022-08-05T10:24:39.780Z,6.00
2022-08-05T10:26:48.911Z,5.00
2022-08-05T10:28:53.806Z,4.60
2022-08-05T10:32:47.178Z,4.40
2022-08-05T10:33:28.754Z,4.00
2022-08-05T10:35:43.929Z,5.00
2022-08-05T10:37:55.554Z,6.00
2022-08-05T10:40:17.540Z,7.00
2022-08-05T10:42:33.704Z,5.00
2022-08-05T10:44:39.037Z,4.80
2022-08-05T10:47:27.136Z,5.00
2022-08-05T10:49:49.183Z,6.25
2022-08-05T10:52:04.981Z,4.00
2022-08-05T10:54:28.219Z,7.00
2022-08-05T10:57:04.225Z,5.80
2022-08-05T10:59:12.526Z,6.00
2022-08-05T11:01:55.384Z,6.00
2022-08-05T11:04:02.119Z,5.50
2022-08-05T11:06:15.069Z,6.00
2022-08-05T11:08:36.866Z,4.80
2022-08-05T11:10:50.449Z,7.00
2022-08-05T11:13:05.384Z,5.00
2022-08-05T11:15:20.360Z,6.20
2022-08-05T11:17:57.970Z,6.25
2022-08-05T11:20:11.183Z,6.00
2022-08-05T11:22:42.302Z,6.00
2022-08-05T11:24:50.861Z,5.00
2022-08-05T11:27:51.347Z,6.00
2022-08-05T11:30:00.264Z,5.40
2022-08-05T11:32:33.630Z,7.75
2022-08-05T11:34:47.494Z,7.40
2022-08-05T11:36:55.102Z,5.40
2022-08-05T11:38:59.441Z,5.00
2022-08-05T11:41:34.503Z,8.00
2022-08-05T11:44:04.623Z,5.80
2022-08-05T11:46:14.899Z,6.00
2022-08-05T11:48:18.971Z,5.00
2022-08-05T11:50:21.684Z,7.00
2022-08-05T11:52:29.493Z,8.00
2022-08-05T11:54:38.285Z,6.25
2022-08-05T11:56:50.514Z,6.80
2022-08-05T11:58:54.778Z,7.80
2022-08-05T12:01:10.792Z,5.00
2022-08-05T12:03:29.194Z,8.00
2022-08-05T12:05:40.141Z,7.60
2022-08-05T12:08:03.412Z,7.75
2022-08-05T12:10:17.364Z,7.00
2022-08-05T12:12:24.362Z,6.00
2022-08-05T12:14:43.250Z,7.00
2022-08-05T12:16:49.833Z,7.20
2022-08-05T12:18:53.505Z,6.00
2022-08-05T12:20:56.123Z,7.00
2022-08-05T12:23:09.804Z,7.00
2022-08-05T12:25:14.271Z,8.00
2022-08-05T12:27:25.495Z,6.80
2022-08-05T12:29:29.202Z,9.00
2022-08-05T12:31:53.218Z,6.00
2022-08-05T12:33:57.437Z,8.00
2022-08-05T12:36:27.116Z,6.00
2022-08-05T12:38:31.559Z,6.00
2022-08-05T12:40:35.706Z,7.00
2022-08-05T12:42:39.823Z,8.00
2022-08-05T12:44:47.623Z,7.40
2022-08-05T12:46:55.039Z,8.00
2022-08-05T12:49:13.416Z,8.00
2022-08-05T12:52:10.004Z,6.00
2022-08-05T12:53:55.777Z,7.00
2022-08-05T12:55:58.560Z,6.00
2022-08-05T12:58:48.551Z,6.00
2022-08-05T13:02:03.460Z,7.00
2022-08-05T13:02:49.660Z,4.80
2022-08-05T13:04:58.653Z,7.00
2022-08-05T13:07:15.911Z,5.75
2022-08-05T13:09:27.892Z,7.00
2022-08-05T13:12:02.209Z,5.25
2022-08-05T13:14:04.928Z,7.00
2022-08-05T13:16:15.400Z,8.00
2022-08-05T13:18:20.967Z,8.00
2022-08-05T13:20:33.495Z,6.40
2022-08-05T13:22:41.135Z,7.00
2022-08-05T13:24:57.415Z,9.00
2022-08-05T13:27:00.735Z,6.50
2022-08-05T13:29:05.301Z,7.80
2022-08-05T13:31:13.966Z,7.00
2022-08-05T13:34:23.558Z,8.00
2022-08-05T13:35:46.988Z,8.60
2022-08-05T13:37:55.785Z,7.00
2022-08-05T13:40:16.173Z,7.50
2022-08-05T13:42:23.448Z,6.25
2022-08-05T13:44:27.563Z,6.00
2022-08-05T13:47:01.726Z,7.25
2022-08-05T13:49:00.894Z,7.00
2022-08-05T13:51:13.941Z,8.20
2022-08-05T13:53:16.483Z,7.75
2022-08-05T13:55:40.785Z,8.00
2022-08-05T13:57:49.016Z,7.00
2022-08-05T13:59:57.101Z,9.20
2022-08-05T14:02:01.161Z,7.20
2022-08-05T14:04:22.528Z,7.00
2022-08-05T14:06:29.269Z,9.40
2022-08-05T14:08:32.683Z,7.00
2022-08-05T14:10:35.590Z,10.00
2022-08-05T14:12:42.699Z,9.20
2022-08-05T14:14:45.743Z,8.20
2022-08-05T14:16:51.221Z,7.50
2022-08-05T14:18:58.058Z,8.00
2022-08-05T14:21:23.868Z,7.75
2022-08-05T14:23:36.683Z,8.00
2022-08-05T14:25:45.035Z,7.00
2022-08-05T14:27:49.484Z,9.20
2022-08-05T14:29:52.209Z,8.80
2022-08-05T14:32:12.180Z,9.00
2022-08-05T14:34:17.400Z,7.75
2022-08-05T14:36:21.246Z,8.40
2022-08-05T14:38:31.622Z,9.60
2022-08-05T14:40:35.286Z,9.00
2022-08-05T14:42:38.147Z,8.00
2022-08-05T14:44:40.639Z,5.25
2022-08-05T14:46:44.420Z,8.40
2022-08-05T14:48:49.221Z,9.00
2022-08-05T14:50:52.417Z,9.00
2022-08-05T14:52:57.714Z,8.80
2022-08-05T14:55:01.451Z,5.75
2022-08-05T16:57:14.966Z,9.20
2022-08-05T16:59:25.043Z,8.00
2022-08-05T17:01:53.785Z,6.00
2022-08-05T17:03:58.704Z,9.00
2022-08-05T17:06:02.420Z,8.80
2022-08-05T17:08:05.124Z,7.00
2022-08-05T17:10:11.458Z,6.75
2022-08-05T17:12:14.521Z,7.80
2022-08-05T17:14:22.396Z,8.75
2022-08-05T17:16:39.487Z,7.00
2022-08-05T17:18:41.970Z,7.00
2022-08-05T17:20:44.592Z,9.00
2022-08-05T17:22:54.336Z,8.20
2022-08-05T17:25:00.188Z,8.00
2022-08-05T17:27:03.070Z,6.50
2022-08-05T17:29:07.438Z,9.00
2022-08-05T17:31:24.543Z,7.75
2022-08-05T17:33:38.808Z,8.00
2022-08-05T17:36:08.422Z,7.00
2022-08-05T17:38:08.294Z,8.50
2022-08-05T17:40:14.423Z,6.50
2022-08-05T17:42:22.761Z,6.00
2022-08-05T17:44:32.562Z,7.00
2022-08-05T17:46:35.711Z,8.75
2022-08-05T17:48:38.477Z,7.00
2022-08-05T17:50:41.054Z,8.50
2022-08-05T17:52:53.095Z,6.80
2022-08-05T17:54:57.371Z,6.00
2022-08-05T17:57:00.353Z,7.00
2022-08-05T17:59:04.004Z,6.25
2022-08-05T18:01:08.075Z,6.00
2022-08-05T18:03:28.003Z,5.80
2022-08-05T18:05:38.085Z,12.25
2022-08-05T18:07:42.194Z,11.00
2022-08-05T18:09:59.765Z,7.00
2022-08-05T18:12:03.445Z,5.00
2022-08-05T18:14:07.553Z,8.00
2022-08-05T18:16:18.136Z,5.80
2022-08-05T18:18:23.027Z,6.00
2022-08-05T18:20:32.024Z,7.00
2022-08-05T18:22:46.134Z,6.60
2022-08-05T18:24:56.892Z,5.00
2022-08-05T18:26:59.432Z,5.00
2022-08-05T18:29:02.222Z,6.60
2022-08-05T18:31:06.275Z,7.00
2022-08-05T18:33:13.887Z,7.00
2022-08-05T18:35:17.259Z,6.00
2022-08-05T18:37:33.567Z,5.00
2022-08-05T18:40:31.156Z,6.00
2022-08-05T18:42:06.323Z,7.00
2022-08-05T18:44:11.643Z,6.00
2022-08-05T18:46:15.842Z,6.00
2022-08-05T18:48:31.630Z,7.00
2022-08-05T18:50:54.603Z,8.00
2022-08-05T18:52:57.630Z,5.00
2022-08-05T18:55:00.628Z,6.20
2022-08-05T18:57:04.090Z,6.40
2022-08-05T18:59:44.438Z,6.00
2022-08-05T19:01:33.437Z,7.33
2022-08-05T19:03:55.698Z,8.60
2022-08-05T19:06:11.562Z,6.50
2022-08-05T19:08:30.957Z,8.20
2022-08-05T19:10:34.097Z,7.25
2022-08-05T19:12:40.066Z,7.00
2022-08-05T19:15:00.513Z,6.00
2022-08-05T19:17:06.343Z,6.00
2022-08-05T19:19:10.556Z,7.75
2022-08-05T19:21:15.830Z,7.60
2022-08-05T19:24:06.053Z,6.00
2022-08-05T19:25:43.465Z,6.00
2022-08-05T19:27:46.504Z,5.00
2022-08-05T19:29:52.532Z,5.50
2022-08-05T19:31:57.468Z,4.00
2022-08-05T19:34:00.141Z,4.50
2022-08-05T19:36:06.152Z,4.00
2022-08-05T19:38:09.492Z,5.00
2022-08-05T19:40:12.703Z,4.00
2022-08-05T19:42:18.770Z,4.00
2022-08-05T19:44:45.107Z,4.00
2022-08-05T19:46:50.093Z,4.00
2022-08-05T19:48:52.911Z,4.00
2022-08-05T19:50:56.758Z,4.00
2022-08-05T19:53:09.438Z,3.75
2022-08-05T19:56:14.355Z,3.00
2022-08-05T19:57:46.449Z,2.40
2022-08-05T20:00:01.893Z,4.00
2022-08-05T20:02:13.878Z,3.20
2022-08-05T20:04:16.436Z,3.20
2022-08-05T20:06:28.689Z,3.00
2022-08-05T20:08:32.089Z,3.00
2022-08-05T20:10:34.654Z,3.40
2022-08-05T20:12:39.453Z,4.00
2022-08-05T20:14:52.239Z,3.00
2022-08-05T20:16:55.915Z,4.00
2022-08-05T20:18:59.123Z,2.80
2022-08-05T20:21:06.954Z,2.50
2022-08-05T20:23:09.637Z,2.00
2022-08-05T20:25:14.931Z,3.00
2022-08-05T20:27:18.145Z,3.75
2022-08-05T20:29:27.569Z,2.00
2022-08-05T20:31:43.062Z,3.00
2022-08-05T20:33:55.529Z,2.00
2022-08-05T20:35:58.344Z,5.25
2022-08-05T20:38:08.135Z,3.80
2022-08-05T20:40:11.726Z,4.00
2022-08-05T20:42:14.207Z,3.75
2022-08-05T20:44:29.547Z,3.50
2022-08-05T20:46:33.600Z,5.00
2022-08-05T20:48:37.110Z,4.00
2022-08-05T20:50:45.341Z,4.00
2022-08-05T20:52:50.521Z,3.00
2022-08-05T20:55:15.936Z,5.00
2022-08-05T20:57:42.703Z,4.00
2022-08-05T20:59:46.114Z,4.00
2022-08-05T21:02:03.338Z,5.40
2022-08-05T21:04:12.398Z,4.60
2022-08-05T21:06:27.996Z,3.25
2022-08-05T21:08:41.626Z,4.00
2022-08-05T21:10:48.708Z,4.20
2022-08-05T21:12:57.937Z,5.00
2022-08-05T21:15:11.771Z,5.50
2022-08-05T21:17:15.727Z,4.00
2022-08-05T21:19:18.192Z,6.25
2022-08-05T21:21:24.466Z,5.25
2022-08-05T21:23:27.216Z,6.00
2022-08-05T21:25:44.625Z,7.00
2022-08-05T21:27:47.750Z,5.60
2022-08-05T21:29:56.485Z,5.40
2022-08-05T21:31:59.326Z,5.40
2022-08-05T21:34:01.924Z,9.00
2022-08-05T21:36:05.211Z,7.40
2022-08-05T21:38:07.699Z,6.00
2022-08-05T21:40:13.872Z,6.20
2022-08-05T21:42:41.367Z,6.00
2022-08-05T21:44:41.482Z,4.00
2022-08-05T21:46:46.010Z,5.75
2022-08-05T21:48:51.339Z,4.00
2022-08-05T21:50:59.250Z,5.60
2022-08-05T21:53:04.717Z,10.00
2022-08-05T21:56:01.061Z,7.00
2022-08-05T21:57:43.183Z,5.40
2022-08-05T22:00:05.296Z,4.40
2022-08-05T22:02:15.030Z,5.00
2022-08-05T22:04:19.377Z,5.00
2022-08-05T22:06:35.059Z,5.75
2022-08-05T22:08:42.827Z,5.00
2022-08-05T22:10:45.567Z,4.00
2022-08-05T22:12:50.689Z,5.80
2022-08-05T22:14:54.015Z,5.00
2022-08-05T22:17:01.473Z,4.00
2022-08-05T22:19:15.240Z,4.80
2022-08-05T22:21:29.065Z,9.80
2022-08-05T22:24:03.143Z,8.00
2022-08-05T22:26:29.961Z,5.50
2022-08-05T22:28:32.778Z,7.00
2022-08-05T22:30:55.914Z,6.00
2022-08-05T22:33:00.510Z,5.00
2022-08-05T22:35:03.042Z,6.60
2022-08-05T22:37:05.556Z,4.00
2022-08-05T22:39:09.674Z,5.50
2022-08-05T22:41:12.798Z,5.00
2022-08-05T22:43:37.331Z,5.00
2022-08-05T22:45:40.286Z,4.80
2022-08-05T22:47:49.703Z,5.25
2022-08-05T22:50:20.400Z,4.00
2022-08-05T22:52:32.561Z,5.25
2022-08-05T22:54:37.174Z,6.00
2022-08-05T22:56:41.399Z,5.80
2022-08-05T22:58:44.762Z,6.20
2022-08-05T23:00:47.448Z,8.00
2022-08-05T23:02:53.307Z,7.60
2022-08-05T23:04:56.362Z,6.75
2022-08-05T23:06:58.877Z,8.00
2022-08-05T23:09:24.593Z,6.00
2022-08-05T23:11:24.190Z,4.40
2022-08-05T23:13:27.165Z,5.75
2022-08-05T23:15:35.142Z,8.25
2022-08-05T23:18:01.572Z,7.20
2022-08-05T23:20:02.364Z,7.60
2022-08-05T23:22:05.321Z,6.00
2022-08-05T23:24:11.335Z,6.00
2022-08-05T23:26:14.221Z,5.75
2022-08-05T23:28:17.798Z,5.75
2022-08-05T23:30:21.034Z,4.00
2022-08-05T23:32:30.878Z,6.50
2022-08-05T23:34:34.206Z,6.00
2022-08-05T23:36:39.912Z,6.20
2022-08-05T23:38:46.954Z,7.00
2022-08-05T23:40:50.581Z,7.75
2022-08-05T23:42:55.318Z,10.25
2022-08-05T23:44:57.846Z,8.20
2022-08-05T23:47:14.629Z,7.80
2022-08-05T23:49:23.650Z,6.60
2022-08-05T23:51:53.596Z,7.00
2022-08-05T23:54:01.141Z,8.00
2022-08-05T23:56:04.242Z,8.00
2022-08-05T23:58:32.063Z,6.00
